Time;durP1;ratioP1;P1;durP2;ratioP2;P2;SDS_P1;SDS_P2;PMS_P1;PMS_P2;Temp;Humidity;BMP_temperature;BMP_pressure;BME280_temperature;BME280_humidity;BME280_pressure;Samples;Min_cycle;Max_cycle;Signal;HPM_P1;HPM_P2
2021/05/10 00:02:12;;;;;;;1.57;1.07;;;;;;;17.85;64.26;100122.72;4956704;28;20510;-71
2021/05/10 00:04:38;;;;;;;1.37;1.00;;;;;;;17.82;64.86;100118.75;4956716;28;20518;-71
2021/05/10 00:07:04;;;;;;;2.70;1.33;;;;;;;17.78;64.37;100114.34;4956564;28;20832;-71
2021/05/10 00:09:30;;;;;;;1.80;1.30;;;;;;;17.75;65.15;100115.88;4956547;28;21000;-71
2021/05/10 00:11:56;;;;;;;1.13;1.00;;;;;;;17.73;65.44;100118.16;4956147;28;20450;-71
2021/05/10 00:14:38;;;;;;;1.03;0.80;;;;;;;17.66;65.32;100115.25;4956083;28;20486;-70
2021/05/10 00:17:04;;;;;;;1.10;0.90;;;;;;;17.59;65.54;100110.44;4956126;28;20896;-70
2021/05/10 00:19:30;;;;;;;2.40;1.03;;;;;;;17.54;64.82;100112.69;4956409;28;20443;-71
2021/05/10 00:21:56;;;;;;;0.90;0.90;;;;;;;17.53;65.46;100117.38;4956072;28;20447;-71
2021/05/10 00:24:21;;;;;;;1.20;1.00;;;;;;;17.53;66.12;100119.28;4956336;28;20446;-70
2021/05/10 00:26:47;;;;;;;1.40;1.27;;;;;;;17.46;66.15;100122.69;4956307;28;20462;-70
2021/05/10 00:29:17;;;;;;;1.30;0.90;;;;;;;17.42;67.01;100127.28;4956180;28;20451;-70
2021/05/10 00:31:43;;;;;;;1.33;0.93;;;;;;;17.33;67.30;100123.97;4955878;28;20877;-70
2021/05/10 00:34:09;;;;;;;1.00;0.90;;;;;;;17.26;66.42;100124.56;4956017;28;20522;-70
2021/05/10 00:36:35;;;;;;;1.83;1.10;;;;;;;17.15;65.73;100129.03;4955949;28;20478;-70
2021/05/10 00:39:01;;;;;;;1.43;1.10;;;;;;;17.09;65.16;100125.00;4955991;28;20451;-70
2021/05/10 00:41:27;;;;;;;1.60;1.50;;;;;;;17.02;64.92;100120.13;4955931;28;20446;-71
2021/05/10 00:43:53;;;;;;;1.20;1.10;;;;;;;16.94;64.52;100117.59;4956072;28;20439;-71
2021/05/10 00:46:20;;;;;;;0.93;0.87;;;;;;;16.92;65.22;100123.44;4955450;28;20475;-71
2021/05/10 00:48:46;;;;;;;1.50;1.07;;;;;;;16.90;66.99;100122.97;4955717;28;20451;-71
2021/05/10 00:51:12;;;;;;;0.97;0.70;;;;;;;16.86;67.47;100127.56;4961600;28;20465;-71
2021/05/10 00:53:38;;;;;;;1.87;1.00;;;;;;;16.81;67.97;100125.91;4955737;28;20557;-71
2021/05/10 00:56:04;;;;;;;2.77;1.40;;;;;;;16.80;67.69;100126.25;4955637;28;20466;-71
2021/05/10 00:58:31;;;;;;;2.40;1.00;;;;;;;16.80;67.75;100118.84;4955935;28;20450;-71
2021/05/10 01:00:57;;;;;;;1.17;0.83;;;;;;;16.78;67.55;100115.69;4955296;28;20450;-71
2021/05/10 01:03:25;;;;;;;1.10;0.80;;;;;;;16.76;67.77;100120.69;4955628;28;20462;-71
2021/05/10 01:05:51;;;;;;;1.00;0.80;;;;;;;16.72;67.12;100119.81;4955763;28;20454;-71
2021/05/10 01:08:17;;;;;;;1.30;1.20;;;;;;;16.71;66.31;100120.94;4955515;28;20530;-71
2021/05/10 01:10:45;;;;;;;1.30;1.20;;;;;;;16.65;65.73;100117.69;4955499;28;20505;-71
2021/05/10 01:13:11;;;;;;;1.03;0.90;;;;;;;16.62;66.07;100110.19;4955457;28;20482;-71
2021/05/10 01:15:37;;;;;;;1.47;0.83;;;;;;;16.61;66.75;100113.28;4954975;28;20873;-71
2021/05/10 01:18:03;;;;;;;1.10;1.00;;;;;;;16.62;66.91;100106.66;4955356;28;20455;-71
2021/05/10 01:20:33;;;;;;;0.80;0.80;;;;;;;16.62;67.55;100107.44;4955061;28;20945;-71
2021/05/10 01:23:01;;;;;;;3.33;1.97;;;;;;;16.59;67.46;100110.09;4955479;28;20438;-71
2021/05/10 01:25:29;;;;;;;1.50;1.00;;;;;;;16.64;66.83;100109.81;4954947;28;21011;-71
2021/05/10 01:27:56;;;;;;;1.17;1.07;;;;;;;16.67;66.39;100114.59;4955286;28;20442;-71
2021/05/10 01:30:25;;;;;;;0.93;0.80;;;;;;;16.72;66.24;100113.53;4955385;28;20447;-71
2021/05/10 01:32:53;;;;;;;3.90;1.40;;;;;;;16.72;66.44;100108.88;4955451;28;20447;-71
2021/05/10 01:35:23;;;;;;;1.50;1.20;;;;;;;16.71;66.10;100104.53;4955092;28;20532;-71
2021/05/10 01:37:49;;;;;;;1.10;0.77;;;;;;;16.74;65.99;100103.06;4955403;28;20442;-71
2021/05/10 01:40:16;;;;;;;1.33;0.90;;;;;;;16.71;66.59;100112.72;4955208;28;20502;-72
2021/05/10 01:42:42;;;;;;;0.83;0.70;;;;;;;16.69;66.13;100103.28;4954832;28;20948;-71
2021/05/10 01:45:10;;;;;;;2.03;1.10;;;;;;;16.68;66.61;100101.69;4954947;28;20471;-72
2021/05/10 01:47:36;;;;;;;1.07;0.90;;;;;;;16.68;65.84;100104.44;4955095;28;20486;-72
2021/05/10 01:50:11;;;;;;;0.77;0.70;;;;;;;16.70;65.85;100096.69;4954759;28;20963;-71
2021/05/10 01:52:36;;;;;;;0.73;0.70;;;;;;;16.71;64.69;100107.25;4954826;28;20439;-71
2021/05/10 01:55:04;;;;;;;0.60;0.60;;;;;;;16.73;65.15;100110.44;4954889;28;20541;-71
2021/05/10 01:57:30;;;;;;;2.27;1.20;;;;;;;16.71;64.69;100099.06;4955025;28;20435;-71
2021/05/10 01:59:57;;;;;;;1.00;0.80;;;;;;;16.68;65.98;100104.44;4954965;28;20453;-71
2021/05/10 02:02:23;;;;;;;0.70;0.70;;;;;;;16.61;64.28;100108.59;4956804;28;20461;-71
2021/05/10 02:05:10;;;;;;;2.50;1.30;;;;;;;16.56;63.22;100108.06;4958759;28;20529;-71
2021/05/10 02:07:38;;;;;;;0.97;0.73;;;;;;;16.50;63.46;100101.25;4958754;28;20450;-71
2021/05/10 02:10:06;;;;;;;5.57;1.30;;;;;;;16.45;63.59;100101.53;4959001;28;20442;-71
2021/05/10 02:12:32;;;;;;;2.37;1.20;;;;;;;16.39;63.70;100104.53;4958656;28;20450;-71
2021/05/10 02:14:58;;;;;;;1.20;0.80;;;;;;;16.35;64.28;100109.13;4958480;28;20494;-71
2021/05/10 02:17:24;;;;;;;0.77;0.77;;;;;;;16.25;65.81;100089.72;4958552;28;21014;-71
2021/05/10 02:19:50;;;;;;;4.00;1.50;;;;;;;16.26;65.34;100088.56;4958531;28;20900;-70
2021/05/10 02:22:16;;;;;;;0.70;0.70;;;;;;;16.27;65.47;100096.41;4958254;28;20454;-69
2021/05/10 02:24:43;;;;;;;1.23;1.03;;;;;;;16.28;65.22;100091.72;4958089;28;20881;-69
2021/05/10 02:27:09;;;;;;;0.80;0.70;;;;;;;16.24;66.25;100088.91;4958446;28;20482;-69
2021/05/10 02:29:36;;;;;;;0.90;0.77;;;;;;;16.18;67.90;100087.59;4958381;28;20438;-69
2021/05/10 02:32:01;;;;;;;1.40;0.97;;;;;;;16.19;66.63;100091.91;4958324;28;20446;-69
2021/05/10 02:34:27;;;;;;;0.80;0.80;;;;;;;16.20;66.77;100089.94;4958227;28;20569;-69
2021/05/10 02:36:53;;;;;;;1.17;0.90;;;;;;;16.19;67.16;100083.69;4958174;28;20501;-69
2021/05/10 02:39:19;;;;;;;1.00;1.00;;;;;;;16.17;67.27;100083.25;4958059;28;20571;-69
2021/05/10 02:41:45;;;;;;;3.47;1.17;;;;;;;16.11;67.40;100087.38;4961539;28;20964;-69
2021/05/10 02:44:11;;;;;;;1.07;0.80;;;;;;;16.10;67.47;100091.25;4961467;28;20497;-69
2021/05/10 02:46:38;;;;;;;1.37;1.03;;;;;;;16.07;67.80;100089.22;4957519;28;20494;-69
2021/05/10 02:49:04;;;;;;;1.03;0.93;;;;;;;16.05;67.92;100088.78;4958059;28;20446;-69
2021/05/10 02:51:30;;;;;;;1.47;0.83;;;;;;;16.03;67.96;100091.09;4957671;28;20968;-69
2021/05/10 02:53:56;;;;;;;5.80;0.97;;;;;;;16.01;68.05;100087.91;4957573;28;20489;-69
2021/05/10 02:56:23;;;;;;;4.00;1.00;;;;;;;15.99;68.54;100095.66;4957648;28;20466;-69
2021/05/10 02:58:49;;;;;;;0.80;0.70;;;;;;;15.97;68.18;100092.47;4957852;28;20458;-69
2021/05/10 03:01:15;;;;;;;1.90;1.17;;;;;;;15.95;68.26;100100.25;4957817;28;20450;-69
2021/05/10 03:03:42;;;;;;;1.47;0.90;;;;;;;15.94;68.15;100106.81;4957787;28;20451;-69
2021/05/10 03:06:07;;;;;;;1.60;0.77;;;;;;;15.92;68.30;100103.66;4957660;28;20875;-69
2021/05/10 03:08:33;;;;;;;1.27;1.10;;;;;;;15.88;68.82;100107.06;4957664;28;20457;-69
2021/05/10 03:10:59;;;;;;;0.83;0.70;;;;;;;15.85;67.01;100112.47;4957624;28;20940;-70
2021/05/10 03:13:25;;;;;;;1.13;1.03;;;;;;;15.78;66.91;100110.31;4957085;28;20976;-70
2021/05/10 03:15:51;;;;;;;1.83;0.70;;;;;;;15.64;66.29;100118.91;4957073;28;20561;-69
2021/05/10 03:18:17;;;;;;;1.10;0.97;;;;;;;15.61;66.02;100113.31;4957456;28;20440;-70
2021/05/10 03:20:44;;;;;;;1.40;1.00;;;;;;;15.58;66.10;100114.00;4957197;28;20451;-70
2021/05/10 03:23:10;;;;;;;1.00;0.90;;;;;;;15.55;66.67;100109.25;4957431;28;20444;-70
2021/05/10 03:25:36;;;;;;;1.33;1.23;;;;;;;15.50;67.58;100114.94;4957022;28;20474;-70
2021/05/10 03:28:02;;;;;;;0.80;0.70;;;;;;;15.47;68.46;100113.69;4957343;28;20500;-70
2021/05/10 03:30:28;;;;;;;1.43;0.80;;;;;;;15.47;68.51;100121.09;4957356;28;20446;-70
2021/05/10 03:32:54;;;;;;;1.30;1.03;;;;;;;15.47;68.95;100118.34;4957260;28;20576;-70
2021/05/10 03:35:21;;;;;;;0.87;0.87;;;;;;;15.41;69.67;100115.09;4957086;28;20495;-70
2021/05/10 03:37:48;;;;;;;0.70;0.70;;;;;;;15.45;69.28;100117.88;4956885;28;20971;-70
2021/05/10 03:40:16;;;;;;;4.50;0.67;;;;;;;15.45;69.27;100121.44;4956855;28;20435;-70
2021/05/10 03:42:43;;;;;;;0.80;0.70;;;;;;;15.46;68.95;100122.22;4957106;28;20568;-70
2021/05/10 03:45:11;;;;;;;2.40;0.60;;;;;;;15.39;67.58;100117.34;4956797;28;20517;-70
2021/05/10 03:47:40;;;;;;;1.10;1.00;;;;;;;15.37;67.09;100123.16;4957018;28;20450;-70
2021/05/10 03:50:08;;;;;;;1.27;0.90;;;;;;;15.31;67.77;100116.31;4956600;28;20470;-70
2021/05/10 03:52:34;;;;;;;1.23;0.97;;;;;;;15.32;68.41;100123.41;4956886;28;20450;-69
2021/05/10 03:55:01;;;;;;;0.70;0.70;;;;;;;15.32;69.26;100120.66;4956639;28;20861;-70
2021/05/10 03:57:27;;;;;;;1.10;0.70;;;;;;;15.34;69.32;100118.38;4956790;28;20455;-70
2021/05/10 03:59:53;;;;;;;0.53;0.40;;;;;;;15.36;69.34;100124.31;4956711;28;20466;-70
2021/05/10 04:02:20;;;;;;;0.73;0.60;;;;;;;15.36;69.66;100124.31;4956705;28;20445;-70
2021/05/10 04:04:50;;;;;;;1.37;0.90;;;;;;;15.38;69.34;100127.47;4956589;28;20489;-70
2021/05/10 04:07:26;;;;;;;1.67;0.63;;;;;;;15.42;68.81;100126.78;4956666;28;20427;-70
2021/05/10 04:15:21;;;;;;;1.27;0.80;;;;;;;15.55;68.56;100125.63;4956223;28;20494;-69
2021/05/10 04:17:47;;;;;;;2.47;0.63;;;;;;;15.55;68.21;100131.06;4956365;28;20451;-70
2021/05/10 04:20:14;;;;;;;1.33;0.87;;;;;;;15.60;67.98;100123.44;4956330;28;20795;-69
2021/05/10 04:22:40;;;;;;;1.03;0.87;;;;;;;15.63;67.32;100116.50;4956333;28;20442;-70
2021/05/10 04:25:06;;;;;;;1.10;1.00;;;;;;;15.69;67.46;100117.88;4955459;28;20466;-69
2021/05/10 04:27:32;;;;;;;0.70;0.53;;;;;;;15.74;67.07;100114.88;4956487;28;20442;-70
2021/05/10 04:29:59;;;;;;;0.77;0.60;;;;;;;15.80;67.30;100118.94;4956374;28;20443;-70
2021/05/10 04:32:25;;;;;;;1.30;1.00;;;;;;;15.83;67.02;100129.19;4955994;28;20451;-70
2021/05/10 04:34:51;;;;;;;0.60;0.60;;;;;;;15.88;66.10;100123.47;4962332;28;20512;-70
2021/05/10 04:37:17;;;;;;;1.27;0.80;;;;;;;15.92;65.71;100120.84;4956162;28;20918;-70
2021/05/10 04:39:43;;;;;;;1.33;1.23;;;;;;;15.96;65.13;100115.47;4956039;28;20446;-70
2021/05/10 04:42:09;;;;;;;0.80;0.80;;;;;;;15.96;63.53;100097.16;4955695;28;20447;-70
2021/05/10 04:44:35;;;;;;;0.90;0.70;;;;;;;15.93;63.82;100102.50;4955609;28;20978;-70
2021/05/10 04:47:02;;;;;;;1.13;0.97;;;;;;;15.91;63.72;100091.94;4955465;28;20467;-69
2021/05/10 04:49:28;;;;;;;1.33;0.77;;;;;;;15.92;64.70;100090.78;4955832;28;20501;-70
2021/05/10 04:51:54;;;;;;;1.00;0.77;;;;;;;15.97;64.86;100092.47;4955739;28;20460;-70
2021/05/10 04:54:20;;;;;;;0.97;0.80;;;;;;;16.04;65.33;100098.94;4955368;28;21004;-70
2021/05/10 04:56:46;;;;;;;0.80;0.70;;;;;;;16.14;65.21;100100.34;4955554;28;20525;-70
2021/05/10 04:59:12;;;;;;;1.37;0.60;;;;;;;16.26;64.51;100105.75;4955728;28;20446;-70
2021/05/10 05:01:38;;;;;;;1.37;0.70;;;;;;;16.35;64.35;100100.91;4955623;28;20450;-70
2021/05/10 05:04:05;;;;;;;0.60;0.50;;;;;;;16.42;63.75;100102.22;4955698;28;20454;-71
2021/05/10 05:06:31;;;;;;;0.60;0.53;;;;;;;16.50;63.45;100098.53;4955491;28;20466;-70
2021/05/10 05:08:56;;;;;;;1.27;1.10;;;;;;;16.57;63.08;100098.72;4955517;28;20823;-69
2021/05/10 05:11:22;;;;;;;0.90;0.70;;;;;;;16.61;62.83;100089.44;4955243;28;20443;-69
2021/05/10 05:13:48;;;;;;;0.90;0.90;;;;;;;16.65;62.53;100081.34;4955371;28;20465;-71
2021/05/10 05:16:14;;;;;;;0.90;0.70;;;;;;;16.68;62.11;100080.59;4955418;28;20470;-71
2021/05/10 05:18:40;;;;;;;1.30;0.87;;;;;;;16.79;60.61;100078.97;4955672;28;20447;-71
2021/05/10 05:21:07;;;;;;;1.33;0.80;;;;;;;16.86;60.46;100084.59;4955664;28;20447;-71
2021/05/10 05:23:34;;;;;;;0.90;0.57;;;;;;;16.99;60.50;100093.47;4955562;28;20450;-71
2021/05/10 05:26:02;;;;;;;2.53;1.00;;;;;;;17.08;60.50;100085.88;4955260;28;20906;-72
2021/05/10 05:28:29;;;;;;;0.70;0.70;;;;;;;17.15;60.12;100096.97;4955234;28;20443;-71
2021/05/10 05:30:55;;;;;;;1.70;0.83;;;;;;;17.24;60.63;100090.53;4955243;28;20447;-72
2021/05/10 05:33:22;;;;;;;0.63;0.50;;;;;;;17.30;59.97;100092.59;4955244;28;20457;-71
2021/05/10 05:35:47;;;;;;;0.93;0.70;;;;;;;17.35;59.69;100091.53;4954862;28;20493;-72
2021/05/10 05:38:14;;;;;;;0.90;0.60;;;;;;;17.43;58.79;100089.75;4955219;28;20474;-71
2021/05/10 05:40:43;;;;;;;1.67;0.70;;;;;;;17.48;59.33;100087.50;4954874;28;20863;-71
2021/05/10 05:43:10;;;;;;;1.63;0.97;;;;;;;17.49;59.95;100091.84;4955134;28;20450;-71
2021/05/10 05:45:36;;;;;;;0.90;0.80;;;;;;;17.47;59.06;100085.13;4956267;28;20529;-72
2021/05/10 05:48:03;;;;;;;0.70;0.70;;;;;;;17.52;57.95;100093.84;4955115;28;20505;-72
2021/05/10 05:50:29;;;;;;;1.00;0.83;;;;;;;17.49;57.36;100102.00;4955254;28;20512;-72
2021/05/10 05:52:55;;;;;;;0.70;0.60;;;;;;;17.50;57.67;100098.91;4954953;28;20446;-72
2021/05/10 05:55:22;;;;;;;1.63;0.67;;;;;;;17.55;57.03;100098.63;4954938;28;21061;-72
2021/05/10 05:57:48;;;;;;;1.10;0.73;;;;;;;17.65;56.93;100102.72;4954994;28;20446;-70
2021/05/10 06:00:15;;;;;;;1.17;1.07;;;;;;;17.77;55.94;100102.59;4954906;28;20450;-70
2021/05/10 06:02:41;;;;;;;1.30;0.80;;;;;;;17.89;55.25;100107.94;4954981;28;20451;-70
2021/05/10 06:05:09;;;;;;;1.27;0.70;;;;;;;17.97;55.72;100111.59;4954715;28;20466;-71
2021/05/10 06:07:40;;;;;;;1.23;0.93;;;;;;;18.08;56.29;100106.31;4954780;28;20818;-71
2021/05/10 06:10:07;;;;;;;1.20;1.10;;;;;;;18.25;54.68;100114.09;4954738;28;20459;-69
2021/05/10 06:12:34;;;;;;;1.03;0.80;;;;;;;18.35;55.43;100112.69;4954730;28;20442;-70
2021/05/10 06:15:00;;;;;;;1.17;0.80;;;;;;;18.43;55.63;100114.41;4954496;28;20579;-70
2021/05/10 06:17:26;;;;;;;0.60;0.60;;;;;;;18.51;54.42;100113.38;4954832;28;20454;-70
2021/05/10 06:19:52;;;;;;;1.00;0.90;;;;;;;18.55;55.18;100122.44;4954852;28;20497;-70
2021/05/10 06:22:18;;;;;;;0.60;0.60;;;;;;;18.58;55.10;100123.66;4954695;28;20856;-70
2021/05/10 06:24:44;;;;;;;1.27;0.77;;;;;;;18.61;55.20;100131.16;4959643;28;20422;-70
2021/05/10 06:27:10;;;;;;;4.27;1.03;;;;;;;18.63;55.75;100132.38;4956502;28;20446;-70
2021/05/10 06:29:37;;;;;;;4.13;0.80;;;;;;;18.75;53.50;100128.69;4954953;28;20513;-69
2021/05/10 06:32:03;;;;;;;1.37;1.07;;;;;;;18.82;54.16;100128.81;4954358;28;20446;-70
2021/05/10 06:34:29;;;;;;;1.20;0.83;;;;;;;18.89;53.06;100122.63;4954610;28;20486;-69
2021/05/10 06:36:55;;;;;;;1.40;1.10;;;;;;;19.01;51.94;100118.88;4954609;28;20514;-69
2021/05/10 06:39:21;;;;;;;1.40;0.80;;;;;;;19.08;52.81;100122.53;4954603;28;20450;-70
2021/05/10 06:41:47;;;;;;;0.70;0.60;;;;;;;19.07;53.98;100117.41;4954501;28;20453;-70
2021/05/10 06:44:13;;;;;;;0.90;0.73;;;;;;;19.06;53.34;100126.81;4954706;28;20809;-73
2021/05/10 06:46:40;;;;;;;0.70;0.70;;;;;;;19.10;53.34;100114.72;4954277;28;20482;-71
2021/05/10 06:49:06;;;;;;;1.30;1.07;;;;;;;19.16;53.13;100112.44;4956763;28;20453;-70
2021/05/10 06:51:32;;;;;;;1.47;0.73;;;;;;;19.25;53.14;100115.69;4958064;28;20458;-71
2021/05/10 06:53:58;;;;;;;0.90;0.90;;;;;;;19.29;52.83;100111.03;4957183;28;20451;-71
2021/05/10 06:56:24;;;;;;;1.43;0.90;;;;;;;19.31;53.75;100114.22;4957006;28;20462;-70
2021/05/10 06:58:50;;;;;;;1.80;1.07;;;;;;;19.44;51.66;100112.03;4957732;28;20450;-70
2021/05/10 07:01:16;;;;;;;1.10;0.80;;;;;;;19.56;52.08;100113.75;4957058;28;21022;-70
2021/05/10 07:03:43;;;;;;;1.27;0.93;;;;;;;19.65;50.93;100109.56;4957408;28;20481;-71
2021/05/10 07:06:09;;;;;;;0.93;0.90;;;;;;;19.68;51.92;100105.31;4957628;28;20463;-71
2021/05/10 07:08:35;;;;;;;1.07;0.60;;;;;;;19.72;52.56;100110.84;4957587;28;20518;-71
2021/05/10 07:11:01;;;;;;;1.20;1.00;;;;;;;19.71;52.54;100110.06;4957577;28;20454;-70
2021/05/10 07:13:27;;;;;;;0.90;0.63;;;;;;;19.74;52.29;100112.03;4957560;28;20505;-71
2021/05/10 07:15:53;;;;;;;0.90;0.77;;;;;;;19.75;52.71;100127.38;4957680;28;20491;-70
2021/05/10 07:18:19;;;;;;;1.27;1.00;;;;;;;19.84;52.09;100130.63;4957471;28;20457;-71
2021/05/10 07:20:47;;;;;;;1.73;0.97;;;;;;;19.86;52.40;100150.28;4957402;28;20453;-71
2021/05/10 07:23:15;;;;;;;1.70;1.03;;;;;;;19.85;53.67;100145.94;4957438;28;20451;-71
2021/05/10 07:25:43;;;;;;;4.37;0.77;;;;;;;19.89;53.05;100137.75;4957335;28;20517;-70
2021/05/10 07:28:09;;;;;;;1.30;1.00;;;;;;;19.95;51.95;100133.50;4957334;28;20459;-70
2021/05/10 07:30:35;;;;;;;1.20;1.10;;;;;;;20.07;51.08;100140.69;4957285;28;20442;-70
2021/05/10 07:33:02;;;;;;;0.97;0.63;;;;;;;20.17;50.96;100140.81;4957028;28;20462;-71
2021/05/10 07:35:28;;;;;;;3.10;0.93;;;;;;;20.31;51.29;100145.66;4957090;28;20490;-71
2021/05/10 07:37:55;;;;;;;1.00;0.77;;;;;;;20.44;50.62;100142.63;4957061;28;20501;-71
2021/05/10 07:40:23;;;;;;;1.57;1.10;;;;;;;20.56;48.51;100145.16;4957305;28;20849;-71
2021/05/10 07:42:49;;;;;;;1.97;1.03;;;;;;;20.65;49.64;100145.63;4957082;28;20506;-71
2021/05/10 07:45:15;;;;;;;0.97;0.80;;;;;;;20.73;48.90;100163.78;4956542;28;20923;-71
2021/05/10 07:47:41;;;;;;;1.60;1.43;;;;;;;20.73;49.65;100163.78;4956844;28;20443;-71
2021/05/10 07:50:07;;;;;;;2.07;1.20;;;;;;;20.78;50.39;100163.44;4956875;28;20442;-71
2021/05/10 07:52:33;;;;;;;1.73;1.13;;;;;;;20.87;49.61;100144.63;4956938;28;20454;-71
2021/05/10 07:55:00;;;;;;;1.47;1.00;;;;;;;20.95;48.96;100137.22;4956784;28;21035;-71
2021/05/10 07:57:27;;;;;;;1.10;1.00;;;;;;;21.01;48.94;100140.41;4956846;28;20495;-70
2021/05/10 07:59:53;;;;;;;0.90;0.80;;;;;;;21.14;48.24;100144.41;4956656;28;20478;-71
2021/05/10 08:02:22;;;;;;;1.73;0.90;;;;;;;21.25;48.33;100138.97;4956774;28;20454;-71
2021/05/10 08:04:49;;;;;;;1.10;0.90;;;;;;;21.25;47.87;100122.44;4956524;28;20970;-71
2021/05/10 08:07:14;;;;;;;2.60;1.27;;;;;;;21.26;48.29;100119.31;4956654;28;20493;-71
2021/05/10 08:09:40;;;;;;;4.60;1.97;;;;;;;21.30;49.43;100114.63;4956644;28;20447;-71
2021/05/10 08:12:08;;;;;;;2.63;1.00;;;;;;;21.39;50.03;100111.53;4956575;28;20454;-71
2021/05/10 08:14:34;;;;;;;1.20;1.10;;;;;;;21.45;51.42;100112.75;4956190;28;21071;-71
2021/05/10 08:17:00;;;;;;;1.30;1.00;;;;;;;21.52;50.35;100115.56;4956406;28;20472;-71
2021/05/10 08:19:26;;;;;;;2.20;1.10;;;;;;;21.51;49.98;100121.44;4962637;28;20828;-71
2021/05/10 08:21:52;;;;;;;1.70;1.00;;;;;;;21.56;49.85;100121.06;4956113;28;20478;-72
2021/05/10 08:24:18;;;;;;;0.97;0.77;;;;;;;21.56;49.79;100126.56;4956751;28;20458;-72
2021/05/10 08:26:44;;;;;;;1.30;1.10;;;;;;;21.53;50.04;100128.16;4956235;28;20502;-72
2021/05/10 08:29:11;;;;;;;1.73;1.37;;;;;;;21.57;50.22;100128.97;4955399;28;20454;-72
2021/05/10 08:31:37;;;;;;;1.07;0.97;;;;;;;21.63;50.39;100132.91;4956469;28;20446;-72
2021/05/10 08:34:03;;;;;;;1.70;1.17;;;;;;;21.65;50.06;100119.53;4956401;28;20793;-72
2021/05/10 08:36:29;;;;;;;1.27;1.10;;;;;;;21.74;50.21;100116.44;4956163;28;20470;-71
2021/05/10 08:38:55;;;;;;;1.63;0.87;;;;;;;21.79;49.83;100116.06;4955758;28;20579;-71
2021/05/10 08:41:22;;;;;;;1.13;0.90;;;;;;;21.79;51.09;100116.06;4956569;28;20796;-71
2021/05/10 08:43:48;;;;;;;3.13;1.53;;;;;;;21.82;50.77;100108.94;4956213;28;20451;-71
2021/05/10 08:46:14;;;;;;;1.40;0.80;;;;;;;21.85;49.17;100106.22;4955631;28;20850;-71
2021/05/10 08:48:40;;;;;;;1.20;1.10;;;;;;;21.99;49.55;100102.69;4956254;28;20455;-71
2021/05/10 08:51:06;;;;;;;1.10;0.90;;;;;;;22.11;50.10;100107.06;4956338;28;20795;-71
2021/05/10 08:53:34;;;;;;;1.73;1.40;;;;;;;22.24;49.42;100105.56;4956338;28;20940;-73
2021/05/10 09:57:02;;;;;;;1.80;1.40;;;;;;;24.57;44.66;100092.63;5105614;27;20960;-72
2021/05/10 09:59:29;;;;;;;2.60;1.27;;;;;;;24.58;45.79;100085.09;5066083;28;20439;-69
2021/05/10 10:01:55;;;;;;;1.43;1.20;;;;;;;24.67;44.86;100090.94;5062007;28;20446;-70
2021/05/10 10:04:21;;;;;;;1.10;1.00;;;;;;;24.72;45.48;100087.72;5050212;28;20478;-70
2021/05/10 10:06:47;;;;;;;1.80;1.37;;;;;;;24.77;45.31;100092.03;5057925;28;21025;-69
2021/05/10 10:09:13;;;;;;;1.60;1.20;;;;;;;24.72;45.55;100104.34;5070092;28;20506;-70
2021/05/10 10:11:39;;;;;;;3.00;1.03;;;;;;;24.76;45.51;100096.78;5070098;28;20441;-70
2021/05/10 10:14:07;;;;;;;2.03;1.00;;;;;;;24.74;44.86;100093.63;5070028;28;20437;-70
2021/05/10 10:16:35;;;;;;;3.60;1.20;;;;;;;24.85;45.67;100104.63;5069948;28;20551;-70
2021/05/10 10:19:04;;;;;;;1.40;1.30;;;;;;;24.95;46.00;100103.72;5069893;28;20563;-71
2021/05/10 10:21:30;;;;;;;1.67;1.30;;;;;;;25.00;44.64;100102.50;5069861;28;20449;-66
2021/05/10 10:24:00;;;;;;;1.30;1.17;;;;;;;25.20;45.22;100100.75;5069386;28;20437;-69
2021/05/10 10:26:27;;;;;;;1.10;1.00;;;;;;;25.48;44.44;100104.38;5069656;28;20457;-69
2021/05/10 10:28:53;;;;;;;1.30;1.20;;;;;;;25.72;43.71;100094.97;5069831;28;20445;-68
2021/05/10 10:31:24;;;;;;;2.27;2.07;;;;;;;25.84;43.86;100101.97;5069690;28;20445;-68
2021/05/10 10:33:53;;;;;;;3.30;1.40;;;;;;;25.92;44.14;100106.22;5069343;28;20916;-69
2021/05/10 10:36:23;;;;;;;1.33;1.23;;;;;;;25.72;42.82;100111.63;5069409;28;20453;-68
2021/05/10 10:39:09;;;;;;;1.30;1.20;;;;;;;25.89;43.35;100098.72;5069460;28;20840;-69
2021/05/10 10:41:50;;;;;;;1.30;1.20;;;;;;;26.05;44.96;100110.00;5069417;28;20434;-68
2021/05/10 10:44:31;;;;;;;3.10;1.30;;;;;;;26.31;41.55;100105.66;5069322;28;20417;-68
2021/05/10 10:46:58;;;;;;;1.23;1.13;;;;;;;26.45;42.22;100106.66;5069246;28;20457;-68
2021/05/10 10:49:29;;;;;;;1.97;1.20;;;;;;;26.56;40.58;100105.31;5069499;28;20446;-69
2021/05/10 10:51:56;;;;;;;1.67;1.27;;;;;;;26.77;41.29;100101.34;5072713;28;20441;-68
2021/05/10 10:54:23;;;;;;;2.10;1.53;;;;;;;26.61;40.56;100104.81;5069485;28;20965;-68
2021/05/10 10:56:53;;;;;;;1.67;1.03;;;;;;;26.88;41.34;100095.63;5060935;28;20513;-68
2021/05/10 10:59:27;;;;;;;3.13;1.30;;;;;;;27.19;40.64;100098.25;5055760;28;20446;-69
2021/05/10 11:01:53;;;;;;;2.40;1.23;;;;;;;27.57;40.35;100102.25;5055324;28;20411;-69
2021/05/10 11:04:25;;;;;;;1.20;1.10;;;;;;;27.85;38.04;100097.34;5055586;28;20438;-68
2021/05/10 11:06:51;;;;;;;1.43;1.30;;;;;;;27.97;38.45;100096.63;5055571;28;20477;-68
2021/05/10 11:09:53;;;;;;;1.20;1.03;;;;;;;28.12;38.36;100091.53;5055543;28;20438;-69
2021/05/10 11:12:47;;;;;;;1.40;1.20;;;;;;;28.51;37.88;100099.00;5055273;28;20457;-69
2021/05/10 11:15:35;;;;;;;2.43;1.50;;;;;;;29.29;36.90;100096.16;5055448;28;20451;-67
2021/05/10 11:18:02;;;;;;;1.90;1.23;;;;;;;30.29;34.42;100104.41;5055090;28;20443;-69
2021/05/10 11:20:39;;;;;;;1.40;1.07;;;;;;;30.69;34.44;100091.91;5055721;28;20814;-69
2021/05/10 11:23:29;;;;;;;1.47;1.37;;;;;;;31.79;34.36;100101.97;5054917;28;20441;-70
2021/05/10 11:25:56;;;;;;;2.70;1.47;;;;;;;32.38;31.96;100096.47;5044793;28;20848;-69
2021/05/10 11:28:40;;;;;;;1.20;1.10;;;;;;;32.37;30.72;100101.31;5055302;28;20449;-70
2021/05/10 11:31:08;;;;;;;1.77;1.20;;;;;;;32.07;32.49;100091.69;5055162;28;20426;-69
2021/05/10 11:34:04;;;;;;;1.40;0.97;;;;;;;32.60;32.46;100090.75;5054719;28;20912;-70
2021/05/10 11:36:31;;;;;;;1.10;1.00;;;;;;;33.22;30.47;100093.31;5054986;28;20834;-69
2021/05/10 11:38:59;;;;;;;1.80;1.27;;;;;;;33.27;29.03;100083.47;5055228;28;20434;-70
2021/05/10 12:28:27;;;;;;;1.00;0.90;;;;;;;36.50;26.95;100078.53;5090475;27;20535;-69
2021/05/10 12:30:55;;;;;;;0.97;0.87;;;;;;;36.94;26.48;100073.94;5090460;28;20833;-70
2021/05/10 12:38:49;;;;;;;0.70;0.70;;;;;;;35.91;26.94;100086.34;5215625;22;20614;-74
2021/05/10 12:41:20;;;;;;;1.10;1.00;;;;;;;35.83;27.98;100089.56;5070112;28;20844;-74
2021/05/10 12:43:48;;;;;;;3.50;0.93;;;;;;;36.45;26.26;100109.50;5069907;28;20806;-74
2021/05/10 12:46:14;;;;;;;0.90;0.77;;;;;;;36.33;26.51;100102.88;5086868;22;20555;-66
2021/05/10 12:51:10;;;;;;;1.17;0.87;;;;;;;36.35;26.92;100114.47;5109849;27;20557;-66
2021/05/10 13:11:10;;;;;;;0.90;0.73;;;;;;;36.07;26.56;100114.81;6376243;22;20191;-71
2021/05/10 13:13:48;;;;;;;1.57;0.90;;;;;;;36.52;26.04;100117.53;6316010;22;723524;-71
2021/05/10 13:16:20;;;;;;;0.80;0.80;;;;;;;36.38;25.88;100122.72;6347512;22;20168;-71
2021/05/10 13:18:52;;;;;;;1.27;0.77;;;;;;;36.29;25.76;100113.59;6347201;22;20497;-70
2021/05/10 13:32:13;;;;;;;0.77;0.77;;;;;;;36.46;26.47;100130.81;6347508;22;20378;-70
2021/05/10 13:34:54;;;;;;;0.90;0.90;;;;;;;36.36;26.64;100125.25;6347302;22;20750;-72
2021/05/10 13:37:20;;;;;;;0.97;0.80;;;;;;;36.33;26.50;100137.53;6347435;22;20383;-73
2021/05/10 13:39:46;;;;;;;0.80;0.60;;;;;;;36.33;26.56;100140.34;6347526;22;20936;-71
2021/05/10 13:42:18;;;;;;;0.93;0.83;;;;;;;36.78;25.57;100143.81;6347039;22;20452;-71
2021/05/10 13:44:44;;;;;;;3.53;0.90;;;;;;;36.61;25.92;100146.44;6347030;22;20454;-71
2021/05/10 13:47:10;;;;;;;1.43;1.00;;;;;;;36.81;26.62;100131.53;6347010;22;20900;-71
2021/05/10 13:49:36;;;;;;;1.03;0.97;;;;;;;36.73;25.98;100141.69;6346873;22;20995;-71
2021/05/10 13:52:03;;;;;;;0.80;0.80;;;;;;;36.47;27.09;100130.31;6347192;22;20401;-70
2021/05/10 13:54:29;;;;;;;0.73;0.73;;;;;;;37.02;27.33;100134.38;6346616;22;20439;-72
2021/05/10 13:56:56;;;;;;;1.83;1.10;;;;;;;37.40;26.57;100126.84;6346240;22;20448;-71